createdAt,value
2018-03-17T00:00:16.331Z,53.80
2018-03-17T00:02:50.864Z,45.60
2018-03-17T00:05:23.319Z,40.10
2018-03-17T00:07:58.012Z,37.90
2018-03-17T00:10:26.543Z,36.90
2018-03-17T00:12:53.624Z,38.73
2018-03-17T00:15:22.375Z,37.03
2018-03-17T00:17:50.079Z,37.07
2018-03-17T00:20:17.899Z,32.63
2018-03-17T00:22:46.307Z,36.50
2018-03-17T00:25:33.461Z,42.83
2018-03-17T00:28:00.719Z,41.80
2018-03-17T00:30:29.669Z,36.87
2018-03-17T00:32:56.591Z,37.20
2018-03-17T00:35:25.551Z,39.40
2018-03-17T00:37:54.363Z,39.00
2018-03-17T00:40:20.980Z,39.77
2018-03-17T00:42:47.675Z,37.53
2018-03-17T00:45:15.395Z,37.00
2018-03-17T00:47:54.271Z,35.47
2018-03-17T00:50:27.407Z,36.90
2018-03-17T00:52:59.095Z,33.30
2018-03-17T00:55:29.965Z,30.67
2018-03-17T00:58:01.257Z,33.17
2018-03-17T01:00:32.679Z,35.87
2018-03-17T01:03:04.248Z,35.80
2018-03-17T01:05:31.036Z,36.17
2018-03-17T01:08:00.987Z,35.40
2018-03-17T01:10:39.436Z,36.10
2018-03-17T01:13:23.813Z,31.77
2018-03-17T01:15:56.419Z,35.43
2018-03-17T01:18:46.875Z,39.20
2018-03-17T01:21:15.351Z,34.87
2018-03-17T01:23:48.754Z,33.17
2018-03-17T01:26:19.135Z,33.00
2018-03-17T01:28:52.775Z,36.57
2018-03-17T01:31:20.283Z,32.90
2018-03-17T01:33:49.275Z,33.80
2018-03-17T01:36:15.996Z,35.30
2018-03-17T01:38:50.289Z,36.13
2018-03-17T01:41:17.440Z,39.30
2018-03-17T01:43:48.153Z,35.23
2018-03-17T01:46:15.143Z,38.80
2018-03-17T01:48:45.126Z,34.20
2018-03-17T01:51:15.084Z,32.73
2018-03-17T01:54:02.784Z,33.50
2018-03-17T01:56:32.376Z,39.07
2018-03-17T01:59:07.996Z,38.10
2018-03-17T02:01:38.191Z,34.37
2018-03-17T02:04:06.195Z,36.03
2018-03-17T02:06:39.093Z,36.33
2018-03-17T02:09:11.799Z,38.53
2018-03-17T02:11:40.487Z,38.47
2018-03-17T02:14:14.899Z,38.93
2018-03-17T02:16:45.972Z,42.13
2018-03-17T02:19:12.858Z,44.77
2018-03-17T02:21:41.111Z,41.53
2018-03-17T02:24:13.051Z,46.87
2018-03-17T02:26:41.008Z,43.37
2018-03-17T02:29:20.968Z,48.20
2018-03-17T02:31:54.095Z,42.40
2018-03-17T02:34:23.063Z,45.87
2018-03-17T02:36:55.656Z,50.53
2018-03-17T02:39:34.531Z,46.40
2018-03-17T02:42:02.578Z,47.27
2018-03-17T02:44:31.487Z,45.97
2018-03-17T02:47:03.359Z,48.03
2018-03-17T02:49:31.053Z,47.83
2018-03-17T02:52:02.750Z,51.87
2018-03-17T02:54:33.431Z,45.23
2018-03-17T02:57:03.100Z,55.40
2018-03-17T02:59:35.316Z,56.03
2018-03-17T03:02:02.819Z,52.10
2018-03-17T03:04:33.211Z,53.43
2018-03-17T03:07:04.132Z,50.73
2018-03-17T03:09:32.770Z,52.97
2018-03-17T03:12:01.011Z,49.40
2018-03-17T03:14:33.620Z,49.73
2018-03-17T03:17:04.291Z,50.70
2018-03-17T03:19:31.891Z,49.30
2018-03-17T03:22:00.960Z,46.63
2018-03-17T03:24:33.318Z,52.30
2018-03-17T03:27:06.184Z,51.97
2018-03-17T03:29:36.007Z,51.87
2018-03-17T03:32:09.272Z,49.00
2018-03-17T03:34:37.712Z,35.07
2018-03-17T03:37:04.306Z,50.60
2018-03-17T03:39:35.616Z,50.50
2018-03-17T03:42:26.955Z,52.80
2018-03-17T03:45:00.772Z,54.50
2018-03-17T03:47:28.495Z,49.00
2018-03-17T03:50:03.655Z,49.43
2018-03-17T03:52:37.487Z,49.37
2018-03-17T03:55:11.039Z,48.23
2018-03-17T03:57:53.210Z,50.20
2018-03-17T04:00:20.567Z,48.47
2018-03-17T04:03:08.279Z,46.63
2018-03-17T04:05:35.376Z,46.63
2018-03-17T04:08:01.891Z,50.00
2018-03-17T04:10:32.156Z,42.90
2018-03-17T04:13:05.588Z,45.80
2018-03-17T04:15:42.692Z,45.47
2018-03-17T04:18:21.323Z,47.40
2018-03-17T04:20:48.582Z,46.67
2018-03-17T04:23:22.628Z,47.00
2018-03-17T04:25:55.882Z,45.57
2018-03-17T04:28:28.504Z,48.47
2018-03-17T04:30:57.144Z,46.43
2018-03-17T04:33:25.359Z,47.27
2018-03-17T04:35:51.891Z,40.57
2018-03-17T04:38:22.108Z,44.17
2018-03-17T04:41:02.960Z,46.57
2018-03-17T04:43:30.434Z,39.27
2018-03-17T04:45:58.092Z,42.70
2018-03-17T04:48:31.795Z,49.87
2018-03-17T04:51:08.039Z,47.33
2018-03-17T04:53:35.395Z,47.53
2018-03-17T04:56:11.420Z,46.33
2018-03-17T04:58:41.779Z,39.57
2018-03-17T05:01:13.891Z,51.97
2018-03-17T05:03:41.717Z,46.60
2018-03-17T05:06:08.388Z,45.97
2018-03-17T05:08:41.783Z,42.60
2018-03-17T05:11:11.428Z,50.93
2018-03-17T05:13:43.972Z,52.50
2018-03-17T05:16:11.756Z,44.50
2018-03-17T05:18:38.521Z,50.20
2018-03-17T05:21:05.231Z,50.83
2018-03-17T05:23:40.841Z,49.23
2018-03-17T05:26:13.973Z,56.00
2018-03-17T05:28:43.385Z,53.90
2018-03-17T05:31:13.771Z,59.83
2018-03-17T05:33:42.078Z,58.23
2018-03-17T05:36:14.568Z,55.00
2018-03-17T05:38:48.171Z,61.00
2018-03-17T05:41:14.771Z,57.20
2018-03-17T05:44:03.212Z,58.23
2018-03-17T05:46:34.227Z,59.50
2018-03-17T05:49:01.567Z,61.87
2018-03-17T05:51:29.156Z,70.97
2018-03-17T05:53:59.312Z,68.63
2018-03-17T05:56:29.658Z,71.27
2018-03-17T05:59:07.063Z,65.97
2018-03-17T06:01:34.059Z,65.60
2018-03-17T06:04:01.409Z,68.37
2018-03-17T06:06:37.688Z,69.40
2018-03-17T06:09:05.131Z,75.63
2018-03-17T06:11:37.861Z,68.90
2018-03-17T06:14:06.240Z,73.33
2018-03-17T06:16:37.700Z,65.83
2018-03-17T06:19:06.354Z,82.63
2018-03-17T06:21:38.502Z,81.77
2018-03-17T06:24:08.872Z,82.40
2018-03-17T06:26:46.522Z,91.93
2018-03-17T06:29:19.016Z,93.40
2018-03-17T06:31:48.709Z,91.00
2018-03-17T06:34:15.319Z,77.57
2018-03-17T06:36:42.895Z,95.33
2018-03-17T06:39:12.295Z,101.10
2018-03-17T06:41:40.184Z,103.43
2018-03-17T06:44:07.591Z,107.43
2018-03-17T06:46:37.751Z,86.13
2018-03-17T06:49:13.839Z,88.57
2018-03-17T06:51:40.609Z,71.23
2018-03-17T06:54:10.656Z,59.70
2018-03-17T06:56:43.188Z,49.37
2018-03-17T06:59:16.604Z,66.17
2018-03-17T07:01:44.956Z,56.97
2018-03-17T07:04:15.171Z,46.63
2018-03-17T07:06:50.115Z,40.43
2018-03-17T07:09:18.799Z,37.67
2018-03-17T07:11:48.767Z,35.87
2018-03-17T07:14:15.352Z,36.57
2018-03-17T07:16:46.819Z,37.93
2018-03-17T07:19:16.399Z,34.07
2018-03-17T07:21:43.976Z,41.13
2018-03-17T07:24:11.463Z,38.33
2018-03-17T07:26:39.175Z,36.37
2018-03-17T07:29:07.631Z,33.80
2018-03-17T07:31:54.296Z,34.17
2018-03-17T07:34:23.203Z,28.90
2018-03-17T07:36:52.140Z,31.00
2018-03-17T07:39:24.375Z,35.23
2018-03-17T07:41:51.312Z,33.30
2018-03-17T07:44:26.212Z,34.97
2018-03-17T07:47:00.821Z,36.17
2018-03-17T07:49:30.028Z,32.20
2018-03-17T07:51:58.635Z,30.97
2018-03-17T07:54:28.415Z,29.93
2018-03-17T07:57:05.748Z,26.70
2018-03-17T07:59:38.351Z,29.43
2018-03-17T08:02:06.471Z,26.30
2018-03-17T08:04:37.872Z,28.73
2018-03-17T08:07:04.724Z,30.03
2018-03-17T08:09:31.519Z,27.67
2018-03-17T08:11:59.572Z,24.23
2018-03-17T08:14:26.983Z,23.27
2018-03-17T08:17:04.891Z,25.10
2018-03-17T08:19:33.243Z,25.53
2018-03-17T08:22:02.320Z,31.43
2018-03-17T08:24:31.118Z,26.93
2018-03-17T08:26:59.260Z,28.47
2018-03-17T08:29:26.489Z,25.70
2018-03-17T08:31:58.439Z,25.27
2018-03-17T08:34:29.209Z,26.97
2018-03-17T08:36:55.799Z,24.97
2018-03-17T08:39:27.422Z,26.63
2018-03-17T08:42:02.916Z,26.80
2018-03-17T08:44:31.636Z,26.20
2018-03-17T08:46:59.948Z,23.13
2018-03-17T08:49:31.943Z,25.57
2018-03-17T08:52:02.720Z,21.73
2018-03-17T08:54:37.444Z,27.10
2018-03-17T08:57:06.288Z,22.30
2018-03-17T08:59:40.903Z,21.27
2018-03-17T09:02:09.857Z,24.93
2018-03-17T09:05:09.556Z,23.83
2018-03-17T09:07:37.051Z,22.23
2018-03-17T09:10:04.703Z,22.70
2018-03-17T09:12:34.176Z,23.47
2018-03-17T09:15:01.052Z,24.47
2018-03-17T09:17:38.424Z,28.03
2018-03-17T09:20:09.676Z,26.93
2018-03-17T09:22:36.993Z,21.83
2018-03-17T09:25:04.892Z,25.90
2018-03-17T09:27:31.904Z,26.07
2018-03-17T09:30:00.508Z,23.20
2018-03-17T09:32:33.412Z,24.13
2018-03-17T09:35:11.460Z,24.67
2018-03-17T09:37:39.404Z,24.43
2018-03-17T09:40:07.495Z,24.40
2018-03-17T09:42:39.060Z,20.90
2018-03-17T09:45:07.587Z,22.93
2018-03-17T09:47:40.262Z,20.40
2018-03-17T09:50:20.811Z,22.67
2018-03-17T09:52:51.195Z,23.60
2018-03-17T09:55:25.887Z,22.43
2018-03-17T09:58:11.601Z,20.90
2018-03-17T10:00:39.248Z,21.30
2018-03-17T10:03:07.620Z,16.83
2018-03-17T10:05:37.604Z,24.27
2018-03-17T10:08:05.079Z,20.53
2018-03-17T10:10:34.876Z,23.43
2018-03-17T10:13:05.284Z,21.40
2018-03-17T10:15:50.859Z,24.20
2018-03-17T10:18:25.948Z,20.57
2018-03-17T10:20:54.227Z,21.40
2018-03-17T10:23:21.057Z,25.17
2018-03-17T10:25:51.224Z,21.03
2018-03-17T10:28:33.923Z,19.43
2018-03-17T10:31:02.051Z,23.13
2018-03-17T10:33:38.917Z,19.43
2018-03-17T10:36:15.153Z,25.23
2018-03-17T10:38:43.427Z,18.40
2018-03-17T10:41:10.784Z,22.87
2018-03-17T10:43:44.329Z,20.43
2018-03-17T10:46:24.459Z,22.20
2018-03-17T10:49:08.107Z,21.43
2018-03-17T10:51:38.471Z,19.67
2018-03-17T10:54:09.432Z,22.50
2018-03-17T10:56:45.852Z,23.23
2018-03-17T10:59:17.584Z,22.83
2018-03-17T11:01:44.184Z,23.67
2018-03-17T11:04:18.286Z,22.27
2018-03-17T11:06:46.480Z,17.53
2018-03-17T11:09:20.301Z,20.00
2018-03-17T11:11:47.052Z,18.57
2018-03-17T11:14:17.585Z,17.83
2018-03-17T11:16:46.004Z,22.10
2018-03-17T11:19:13.332Z,21.90
2018-03-17T11:21:46.058Z,20.40
2018-03-17T11:24:18.216Z,21.53
2018-03-17T11:26:49.326Z,20.07
2018-03-17T11:29:23.976Z,17.17
2018-03-17T11:31:52.627Z,16.90
2018-03-17T11:34:35.871Z,18.73
2018-03-17T11:37:08.177Z,20.60
2018-03-17T11:39:42.846Z,19.30
2018-03-17T11:42:09.791Z,21.60
2018-03-17T11:44:36.387Z,22.23
2018-03-17T11:47:04.968Z,17.80
2018-03-17T11:49:38.531Z,20.73
2018-03-17T11:52:06.867Z,17.87
2018-03-17T11:54:35.123Z,21.40
2018-03-17T11:57:01.792Z,23.73
2018-03-17T11:59:36.502Z,27.13
2018-03-17T12:02:05.156Z,20.80
2018-03-17T12:04:43.339Z,24.40
2018-03-17T12:07:13.663Z,20.67
2018-03-17T12:09:41.204Z,22.30
2018-03-17T12:12:08.937Z,23.23
2018-03-17T12:14:43.431Z,23.33
2018-03-17T12:17:33.168Z,23.70
2018-03-17T12:20:05.716Z,18.60
2018-03-17T12:22:39.045Z,22.00
2018-03-17T12:25:09.272Z,20.97
2018-03-17T12:27:37.575Z,22.03
2018-03-17T12:30:13.654Z,21.67
2018-03-17T12:32:48.499Z,20.57
2018-03-17T12:35:28.111Z,21.57
2018-03-17T12:38:05.462Z,20.63
2018-03-17T12:40:34.234Z,18.77
2018-03-17T12:43:01.971Z,21.17
2018-03-17T12:45:53.912Z,21.80
2018-03-17T12:48:24.466Z,20.23
2018-03-17T12:50:58.453Z,18.57
2018-03-17T12:53:27.691Z,17.90
2018-03-17T12:56:12.218Z,20.43
2018-03-17T12:58:51.711Z,19.37
2018-03-17T13:01:22.199Z,19.10
2018-03-17T13:03:49.085Z,21.03
2018-03-17T13:06:15.841Z,20.87
2018-03-17T13:08:42.610Z,19.27
2018-03-17T13:11:10.324Z,21.47
2018-03-17T13:13:38.541Z,19.57
2018-03-17T13:16:06.216Z,17.53
2018-03-17T13:18:33.551Z,17.73
2018-03-17T13:21:04.528Z,20.33
2018-03-17T13:23:31.480Z,18.20
2018-03-17T13:26:00.943Z,15.87
2018-03-17T13:28:30.958Z,18.00
2018-03-17T13:31:00.388Z,18.53
2018-03-17T13:33:27.019Z,17.40
2018-03-17T13:36:09.667Z,17.90
2018-03-17T13:38:41.861Z,21.50
2018-03-17T13:41:09.891Z,22.77
2018-03-17T13:43:43.603Z,20.60
2018-03-17T13:46:10.919Z,19.90
2018-03-17T13:48:38.156Z,20.50
2018-03-17T13:51:08.240Z,22.70
2018-03-17T13:53:35.568Z,21.30
2018-03-17T13:56:02.415Z,18.30
2018-03-17T13:58:34.942Z,19.43
2018-03-17T14:01:05.552Z,20.67
2018-03-17T14:03:43.101Z,17.60
2018-03-17T14:06:12.072Z,22.47
2018-03-17T14:09:01.430Z,17.07
2018-03-17T14:11:28.051Z,18.50
2018-03-17T14:14:20.435Z,18.90
2018-03-17T14:16:47.667Z,20.00
2018-03-17T14:19:18.723Z,17.50
2018-03-17T14:21:47.376Z,16.73
2018-03-17T14:24:14.664Z,15.60
2018-03-17T14:26:41.303Z,18.00
2018-03-17T14:29:09.803Z,14.27
2018-03-17T14:31:38.076Z,16.60
2018-03-17T14:34:06.531Z,17.90
2018-03-17T14:36:38.198Z,15.47
2018-03-17T14:39:08.512Z,16.40
2018-03-17T14:41:42.488Z,17.30
2018-03-17T14:44:10.188Z,18.30
2018-03-17T14:46:39.526Z,16.57
2018-03-17T14:49:09.450Z,17.87
2018-03-17T14:51:39.660Z,16.70
2018-03-17T14:54:09.523Z,16.40
2018-03-17T14:56:36.966Z,16.63
2018-03-17T14:59:07.749Z,14.80
2018-03-17T15:01:36.670Z,16.73
2018-03-17T15:04:03.868Z,17.60
2018-03-17T15:06:38.522Z,16.20
2018-03-17T15:09:08.285Z,19.43
2018-03-17T15:11:38.763Z,17.20
2018-03-17T15:14:09.432Z,16.40
2018-03-17T15:16:40.099Z,15.90
2018-03-17T15:19:06.773Z,17.97
2018-03-17T15:21:42.513Z,17.27
2018-03-17T15:24:13.789Z,18.00
2018-03-17T15:26:40.307Z,14.57
2018-03-17T15:29:09.688Z,17.97
2018-03-17T15:31:43.235Z,18.33
2018-03-17T15:34:11.612Z,14.70
2018-03-17T15:36:42.656Z,18.67
2018-03-17T15:39:15.939Z,17.60
2018-03-17T15:41:46.531Z,16.40
2018-03-17T15:44:20.627Z,14.87
2018-03-17T15:46:50.520Z,16.17
2018-03-17T15:49:17.798Z,14.47
2018-03-17T15:51:45.716Z,16.70
2018-03-17T15:54:13.320Z,18.87
2018-03-17T15:56:40.015Z,15.00
2018-03-17T15:59:07.861Z,20.20
2018-03-17T16:01:44.743Z,18.80
2018-03-17T16:04:16.468Z,18.03
2018-03-17T16:06:51.883Z,17.27
2018-03-17T16:09:20.318Z,16.33
2018-03-17T16:11:47.843Z,16.73
2018-03-17T16:14:16.383Z,17.83
2018-03-17T16:16:44.777Z,18.30
2018-03-17T16:19:18.989Z,17.10
2018-03-17T16:21:46.748Z,17.63
2018-03-17T16:24:14.315Z,18.10
2018-03-17T16:26:42.620Z,13.33
2018-03-17T16:29:21.711Z,17.00
2018-03-17T16:31:56.838Z,20.20
2018-03-17T16:34:35.699Z,18.20
2018-03-17T16:37:09.041Z,20.23
2018-03-17T16:39:36.771Z,20.97
2018-03-17T16:42:09.677Z,19.50
2018-03-17T16:44:38.765Z,19.67
2018-03-17T16:47:06.435Z,18.17
2018-03-17T16:49:38.995Z,17.63
2018-03-17T16:52:09.972Z,16.43
2018-03-17T16:54:41.887Z,19.03
2018-03-17T16:57:10.243Z,20.73
2018-03-17T16:59:39.569Z,19.40
2018-03-17T17:02:12.168Z,20.10
2018-03-17T17:04:42.621Z,18.37
2018-03-17T17:07:12.389Z,17.60
2018-03-17T17:09:39.970Z,19.17
2018-03-17T17:12:06.987Z,15.00
2018-03-17T17:14:35.551Z,15.07
2018-03-17T17:17:16.445Z,19.40
2018-03-17T17:19:47.056Z,16.50
2018-03-17T17:22:15.744Z,16.83
2018-03-17T17:24:43.220Z,20.53
2018-03-17T17:27:16.324Z,19.10
2018-03-17T17:29:49.587Z,21.83
2018-03-17T17:32:21.848Z,18.60
2018-03-17T17:34:56.248Z,19.50
2018-03-17T17:37:23.511Z,20.50
2018-03-17T17:39:57.268Z,21.13
2018-03-17T17:42:25.985Z,21.60
2018-03-17T17:45:02.095Z,17.37
2018-03-17T17:47:36.484Z,18.77
2018-03-17T17:50:06.475Z,15.50
2018-03-17T17:52:34.092Z,19.00
2018-03-17T17:55:09.391Z,15.87
2018-03-17T17:57:37.900Z,18.73
2018-03-17T18:00:11.460Z,21.50
2018-03-17T18:02:41.092Z,18.53
2018-03-17T18:05:09.533Z,19.80
2018-03-17T18:07:37.301Z,19.07
2018-03-17T18:10:12.554Z,20.67
2018-03-17T18:12:44.236Z,18.13
2018-03-17T18:15:13.813Z,18.30
2018-03-17T18:17:40.571Z,20.10
2018-03-17T18:20:11.143Z,16.57
2018-03-17T18:22:39.211Z,19.53
2018-03-17T18:25:11.412Z,21.17
2018-03-17T18:27:38.999Z,19.03
2018-03-17T18:30:11.508Z,18.60
2018-03-17T18:32:39.716Z,17.20
2018-03-17T18:35:06.494Z,17.77
2018-03-17T18:37:33.840Z,13.97
2018-03-17T18:40:04.257Z,17.07
2018-03-17T18:42:31.759Z,21.67
2018-03-17T18:45:03.679Z,17.03
2018-03-17T18:47:37.297Z,19.23
2018-03-17T18:50:12.618Z,17.27
2018-03-17T18:52:39.259Z,14.80
2018-03-17T18:55:08.817Z,16.60
2018-03-17T18:57:36.315Z,19.03
2018-03-17T19:00:04.740Z,16.60
2018-03-17T19:02:32.333Z,18.40
2018-03-17T19:05:06.977Z,18.40
2018-03-17T19:07:36.235Z,17.70
2018-03-17T19:10:04.825Z,19.13
2018-03-17T19:12:32.371Z,16.83
2018-03-17T19:15:09.044Z,19.47
2018-03-17T19:17:44.396Z,18.87
2018-03-17T19:20:37.332Z,19.70
2018-03-17T19:23:06.824Z,15.80
2018-03-17T19:25:41.473Z,15.97
2018-03-17T19:28:15.605Z,16.87
2018-03-17T19:30:42.958Z,18.10
2018-03-17T19:33:10.777Z,21.03
2018-03-17T19:35:39.814Z,18.57
2018-03-17T19:38:13.573Z,20.00
2018-03-17T19:40:42.437Z,17.33
2018-03-17T19:43:14.340Z,19.00
2018-03-17T19:45:42.068Z,17.57
2018-03-17T19:48:12.001Z,17.63
2018-03-17T19:50:38.697Z,18.60
2018-03-17T19:53:13.601Z,19.80
2018-03-17T19:55:40.430Z,18.17
2018-03-17T19:58:12.450Z,20.80
2018-03-17T20:00:54.019Z,20.13
2018-03-17T20:03:27.548Z,22.10
2018-03-17T20:05:59.440Z,20.20
2018-03-17T20:08:28.024Z,21.20
2018-03-17T20:10:54.934Z,20.60
2018-03-17T20:13:22.487Z,18.33
2018-03-17T20:15:49.137Z,21.10
2018-03-17T20:18:16.688Z,19.80
2018-03-17T20:20:58.079Z,17.37
2018-03-17T20:23:27.103Z,20.20
2018-03-17T20:25:57.488Z,17.97
2018-03-17T20:28:40.471Z,18.77
2018-03-17T20:31:08.977Z,24.33
2018-03-17T20:33:37.591Z,17.40
2018-03-17T20:36:31.823Z,21.60
2018-03-17T20:39:10.744Z,21.27
2018-03-17T20:41:42.491Z,22.33
2018-03-17T20:44:09.950Z,21.00
2018-03-17T20:46:37.512Z,22.43
2018-03-17T20:49:13.323Z,21.00
2018-03-17T20:51:45.745Z,21.00
2018-03-17T20:54:18.156Z,25.67
2018-03-17T20:56:51.420Z,24.13
2018-03-17T20:59:25.175Z,18.87
2018-03-17T21:01:59.803Z,22.57
2018-03-17T21:04:32.360Z,20.50
2018-03-17T21:07:05.771Z,19.07
2018-03-17T21:09:41.800Z,20.93
2018-03-17T21:12:17.264Z,21.87
2018-03-17T21:14:47.583Z,28.20
2018-03-17T21:17:15.547Z,22.73
2018-03-17T21:19:42.942Z,26.07
2018-03-17T21:22:17.965Z,21.50
2018-03-17T21:24:45.633Z,22.37
2018-03-17T21:27:13.643Z,21.07
2018-03-17T21:29:43.081Z,14.27
2018-03-17T21:32:12.781Z,17.53
2018-03-17T21:34:44.347Z,18.03
2018-03-17T21:37:17.494Z,25.70
2018-03-17T21:39:51.444Z,27.27
2018-03-17T21:42:25.048Z,30.57
2018-03-17T21:44:57.852Z,29.83
2018-03-17T21:47:29.288Z,28.80
2018-03-17T21:49:57.267Z,28.50
2018-03-17T21:52:37.778Z,25.90
2018-03-17T21:55:05.243Z,28.40
2018-03-17T21:57:33.532Z,23.87
2018-03-17T22:00:05.528Z,26.60
2018-03-17T22:02:35.296Z,23.03
2018-03-17T22:05:05.595Z,24.50
2018-03-17T22:07:32.199Z,31.10
2018-03-17T22:10:01.204Z,26.30
2018-03-17T22:12:42.418Z,28.77
2018-03-17T22:15:19.375Z,26.40
2018-03-17T22:17:57.994Z,27.00
2018-03-17T22:20:29.467Z,28.63
2018-03-17T22:23:02.139Z,33.53
2018-03-17T22:25:37.787Z,28.00
2018-03-17T22:28:08.883Z,20.63
2018-03-17T22:30:40.623Z,28.17
2018-03-17T22:33:08.179Z,26.00
2018-03-17T22:35:43.117Z,30.00
2018-03-17T22:38:10.794Z,23.10
2018-03-17T22:40:43.387Z,29.37
2018-03-17T22:43:16.671Z,23.37
2018-03-17T22:45:46.679Z,28.37
2018-03-17T22:48:19.387Z,25.80
2018-03-17T22:50:52.980Z,24.48
2018-03-17T22:53:21.420Z,22.23
2018-03-17T22:55:56.500Z,22.60
2018-03-17T22:58:24.111Z,23.83
2018-03-17T23:00:51.471Z,28.00
2018-03-17T23:03:27.743Z,26.57
2018-03-17T23:05:56.435Z,32.05
2018-03-17T23:08:24.330Z,26.77
2018-03-17T23:10:51.816Z,31.30
2018-03-17T23:13:21.984Z,34.53
2018-03-17T23:15:50.608Z,39.10
2018-03-17T23:18:22.818Z,37.42
2018-03-17T23:20:50.115Z,36.70
2018-03-17T23:23:22.473Z,27.98
2018-03-17T23:25:51.139Z,26.57
2018-03-17T23:28:25.517Z,38.33
2018-03-17T23:30:55.075Z,33.57
2018-03-17T23:33:37.339Z,32.67
2018-03-17T23:36:11.195Z,34.60
2018-03-17T23:38:38.835Z,33.20
2018-03-17T23:41:08.292Z,27.27
2018-03-17T23:43:44.032Z,29.93
2018-03-17T23:46:17.406Z,33.50
2018-03-17T23:48:46.752Z,35.50
2018-03-17T23:51:17.887Z,32.25
2018-03-17T23:53:44.575Z,36.67
2018-03-17T23:56:17.888Z,31.30
2018-03-17T23:58:45.527Z,32.63
